Time;durP1;ratioP1;P1;durP2;ratioP2;P2;SDS_P1;SDS_P2;PMS_P1;PMS_P2;Temp;Humidity;BMP_temperature;BMP_pressure;BME280_temperature;BME280_humidity;BME280_pressure;Samples;Min_cycle;Max_cycle;Signal;HPM_P1;HPM_P2
2023/08/19 09:59:26;;;;;;;5.22;3.80;;;28.30;99.90;;;;;;6242213;22;20023;-96
2023/08/19 10:02:08;;;;;;;7.88;4.28;;;28.50;99.90;;;;;;6246970;23;20055;-96
2023/08/19 10:04:34;;;;;;;4.53;3.80;;;28.50;99.90;;;;;;6173483;23;20008;-96
2023/08/19 10:07:03;;;;;;;8.45;4.05;;;28.60;99.90;;;;;;6237350;22;20024;-95
2023/08/19 10:09:34;;;;;;;8.63;4.20;;;28.60;99.90;;;;;;6215333;23;20008;-96
2023/08/19 10:12:03;;;;;;;6.88;4.88;;;28.70;99.90;;;;;;6203377;23;20020;-96
2023/08/19 10:14:33;;;;;;;5.05;4.60;;;28.70;99.90;;;;;;6225254;23;20012;-96
2023/08/19 10:17:08;;;;;;;6.32;4.93;;;28.90;99.90;;;;;;6210551;23;20009;-96
2023/08/19 10:19:43;;;;;;;6.00;5.05;;;28.70;99.90;;;;;;6211178;23;20040;-96
2023/08/19 10:22:14;;;;;;;9.95;4.68;;;28.90;99.90;;;;;;6210210;23;20023;-96
2023/08/19 10:24:42;;;;;;;6.13;4.60;;;29.00;99.90;;;;;;6207210;23;20023;-96
2023/08/19 10:27:20;;;;;;;5.97;4.53;;;29.00;99.90;;;;;;6192996;23;20013;-96
2023/08/19 10:29:46;;;;;;;6.40;5.15;;;29.00;99.90;;;;;;6216083;23;20019;-96
2023/08/19 10:32:34;;;;;;;7.97;5.17;;;29.00;99.90;;;;;;6217350;23;20446;-96
2023/08/19 10:35:08;;;;;;;6.70;5.10;;;28.80;99.90;;;;;;6191207;23;20013;-96
2023/08/19 10:38:02;;;;;;;6.90;5.30;;;28.60;99.90;;;;;;6199924;22;20079;-96
2023/08/19 10:40:28;;;;;;;6.10;5.50;;;28.40;99.90;;;;;;6224741;23;20083;-96
2023/08/19 10:42:58;;;;;;;9.85;6.32;;;28.10;99.90;;;;;;6215696;23;20332;-96
2023/08/19 10:45:31;;;;;;;7.85;5.55;;;28.00;99.90;;;;;;6195055;23;20372;-96
2023/08/19 10:47:57;;;;;;;8.23;5.53;;;27.80;99.90;;;;;;6189537;23;20020;-96
2023/08/19 10:50:25;;;;;;;7.28;6.00;;;27.60;99.90;;;;;;6192004;23;20004;-92
2023/08/19 10:53:04;;;;;;;7.47;5.88;;;27.40;99.90;;;;;;6217975;23;20112;-94
2023/08/19 10:55:58;;;;;;;7.95;6.10;;;27.10;99.90;;;;;;6190640;23;20029;-94
2023/08/19 10:58:25;;;;;;;10.25;6.50;;;27.00;99.90;;;;;;6205744;23;20017;-95
2023/08/19 11:00:50;;;;;;;8.82;6.82;;;26.70;99.90;;;;;;6219756;23;20012;-93
2023/08/19 11:03:16;;;;;;;7.95;6.68;;;26.60;99.90;;;;;;6205360;23;20499;-94
2023/08/19 11:05:52;;;;;;;10.13;7.85;;;26.40;99.90;;;;;;6190731;23;20496;-95
2023/08/19 11:08:18;;;;;;;9.70;8.67;;;26.20;99.90;;;;;;6189313;23;20013;-94
2023/08/19 11:10:47;;;;;;;12.20;9.07;;;26.10;99.90;;;;;;6190212;23;20244;-95
2023/08/19 11:13:15;;;;;;;11.35;8.48;;;26.10;99.90;;;;;;6216941;23;20017;-94
2023/08/19 11:15:43;;;;;;;10.82;9.07;;;26.10;99.90;;;;;;6217475;23;20016;-94
2023/08/19 11:18:09;;;;;;;10.32;8.57;;;26.10;99.90;;;;;;6190739;23;20323;-93
2023/08/19 11:20:39;;;;;;;11.95;8.77;;;26.10;99.90;;;;;;6215894;23;20036;-94
2023/08/19 11:23:08;;;;;;;9.90;8.48;;;26.20;99.90;;;;;;6215921;23;20017;-95
2023/08/19 11:25:38;;;;;;;10.18;9.18;;;26.30;99.90;;;;;;6216694;23;20031;-94
2023/08/19 11:28:07;;;;;;;10.07;8.27;;;26.50;99.90;;;;;;6216390;23;20023;-94
2023/08/19 11:30:35;;;;;;;9.70;8.30;;;26.70;99.90;;;;;;6190811;23;20048;-94
2023/08/19 11:33:02;;;;;;;8.65;7.75;;;26.90;99.90;;;;;;6216548;23;20011;-94
2023/08/19 11:35:41;;;;;;;9.00;8.20;;;27.10;99.90;;;;;;6190678;23;20450;-94
2023/08/19 11:38:13;;;;;;;9.65;7.80;;;27.40;99.90;;;;;;6216206;23;20024;-94
2023/08/19 11:40:39;;;;;;;9.65;7.78;;;27.60;99.90;;;;;;6191816;23;20078;-94
2023/08/19 11:43:13;;;;;;;11.52;7.97;;;28.10;99.90;;;;;;6216817;23;20048;-95
2023/08/19 11:45:52;;;;;;;9.32;7.93;;;28.10;99.90;;;;;;6191290;23;20009;-95
2023/08/19 11:48:18;;;;;;;9.02;8.10;;;28.30;99.90;;;;;;6190425;23;20023;-95
2023/08/19 11:50:46;;;;;;;9.77;7.72;;;28.50;99.90;;;;;;6219405;23;20071;-94
2023/08/19 11:53:39;;;;;;;11.63;7.88;;;28.90;99.90;;;;;;6205273;23;20083;-94
2023/08/19 11:56:13;;;;;;;11.82;8.63;;;29.30;99.90;;;;;;6226692;23;20382;-93
2023/08/19 11:58:51;;;;;;;10.02;8.88;;;29.70;99.90;;;;;;6218560;23;20453;-94
2023/08/19 12:01:18;;;;;;;13.65;10.00;;;29.70;99.90;;;;;;6191661;23;20050;-95
2023/08/19 12:03:46;;;;;;;11.13;9.15;;;29.80;99.90;;;;;;6189960;23;20430;-94
2023/08/19 12:06:13;;;;;;;11.32;10.23;;;30.10;99.90;;;;;;6189956;23;20043;-94
2023/08/19 12:08:44;;;;;;;10.75;9.65;;;30.00;99.90;;;;;;6191283;23;20016;-94
2023/08/19 12:11:22;;;;;;;10.98;9.77;;;29.90;99.90;;;;;;6216911;23;20013;-95
2023/08/19 12:13:50;;;;;;;11.32;10.35;;;29.80;99.90;;;;;;6189830;23;20384;-94
2023/08/19 12:16:16;;;;;;;13.75;10.50;;;29.70;99.90;;;;;;6216119;23;20056;-94
2023/08/19 12:18:42;;;;;;;11.05;9.95;;;29.50;99.90;;;;;;6190607;23;20477;-94
2023/08/19 12:21:18;;;;;;;14.25;11.55;;;29.50;99.90;;;;;;6189785;23;20012;-93
2023/08/19 12:23:44;;;;;;;13.07;11.73;;;29.40;99.90;;;;;;6191090;23;20431;-93
2023/08/19 12:26:10;;;;;;;13.50;12.05;;;29.10;99.90;;;;;;6216548;23;20319;-95
2023/08/19 12:28:38;;;;;;;13.30;12.07;;;29.10;99.90;;;;;;6190137;23;20023;-94
2023/08/19 12:31:04;;;;;;;13.52;12.23;;;29.00;99.90;;;;;;6217640;23;20013;-94
2023/08/19 12:33:34;;;;;;;14.68;13.20;;;28.80;99.90;;;;;;6215979;23;20154;-94
2023/08/19 12:36:00;;;;;;;14.93;13.50;;;28.70;99.90;;;;;;6215273;23;20151;-93
2023/08/19 12:38:26;;;;;;;14.68;13.25;;;28.60;99.90;;;;;;6217559;23;20012;-94
2023/08/19 12:40:52;;;;;;;15.63;14.07;;;28.40;99.90;;;;;;6190497;23;20013;-93
2023/08/19 12:43:17;;;;;;;17.05;14.27;;;28.20;99.90;;;;;;6190804;23;20060;-94
2023/08/19 12:45:44;;;;;;;16.85;15.25;;;27.90;99.90;;;;;;6197621;23;20017;-93
2023/08/19 12:48:13;;;;;;;25.40;23.08;;;27.70;99.90;;;;;;6201159;23;20012;-94
2023/08/19 12:50:38;;;;;;;28.67;25.90;;;27.50;99.90;;;;;;6225459;23;20039;-93
2023/08/19 12:53:06;;;;;;;31.27;27.95;;;27.40;99.90;;;;;;6194492;23;20016;-94
2023/08/19 12:55:31;;;;;;;32.53;29.40;;;27.30;99.90;;;;;;6192036;23;20020;-95
2023/08/19 12:57:57;;;;;;;32.53;28.67;;;27.30;99.90;;;;;;6189520;23;20110;-94
2023/08/19 13:00:25;;;;;;;32.50;29.10;;;27.20;99.90;;;;;;6188865;23;20468;-94
2023/08/19 13:02:51;;;;;;;34.00;30.33;;;27.10;99.90;;;;;;6189752;23;20035;-94
2023/08/19 13:05:18;;;;;;;33.15;29.85;;;26.90;99.90;;;;;;6213911;23;20442;-94
2023/08/19 13:07:45;;;;;;;31.17;27.88;;;26.80;99.90;;;;;;6190541;23;20035;-94
2023/08/19 13:10:11;;;;;;;31.70;28.40;;;26.70;99.90;;;;;;6191009;23;20020;-95
2023/08/19 13:12:38;;;;;;;29.67;26.67;;;26.60;99.90;;;;;;6190217;23;20017;-93
2023/08/19 13:15:04;;;;;;;;;;;26.40;99.90;;;;;;6215873;23;20031;-94
2023/08/19 13:17:35;;;;;;;24.50;22.10;;;26.30;99.90;;;;;;6215821;23;19923;-95
2023/08/19 13:20:02;;;;;;;23.52;21.02;;;26.20;99.90;;;;;;6188824;23;20017;-94
2023/08/19 13:22:28;;;;;;;;;;;26.20;99.90;;;;;;6189609;23;20434;-95
2023/08/19 13:24:53;;;;;;;21.83;19.60;;;26.20;99.90;;;;;;6190331;23;19912;-94
2023/08/19 13:27:22;;;;;;;21.70;19.40;;;26.20;99.90;;;;;;6215066;23;20013;-94
2023/08/19 13:29:48;;;;;;;21.17;18.80;;;26.20;99.90;;;;;;6189758;23;20012;-93
2023/08/19 13:32:13;;;;;;;20.75;18.77;;;26.40;99.90;;;;;;6190643;23;20335;-94
2023/08/19 13:34:43;;;;;;;19.50;16.27;;;26.40;99.90;;;;;;6189828;23;20055;-94
2023/08/19 13:37:10;;;;;;;19.67;15.55;;;26.40;99.90;;;;;;6192462;23;20017;-93
2023/08/19 13:39:36;;;;;;;17.02;14.23;;;26.30;99.90;;;;;;6223973;23;20083;-93
2023/08/19 13:42:02;;;;;;;15.93;14.25;;;26.30;99.90;;;;;;6230283;23;20359;-94
2023/08/19 13:44:28;;;;;;;15.77;14.18;;;26.10;99.90;;;;;;6223757;23;20005;-93
2023/08/19 13:46:55;;;;;;;15.20;13.60;;;26.00;99.90;;;;;;6202251;23;20343;-93
2023/08/19 13:49:20;;;;;;;15.73;14.18;;;25.90;99.90;;;;;;6191247;23;20095;-94
2023/08/19 13:51:47;;;;;;;14.55;13.10;;;25.90;99.90;;;;;;6189452;23;20019;-94
2023/08/19 13:54:17;;;;;;;12.77;11.35;;;25.90;99.90;;;;;;6190749;23;20144;-94
2023/08/19 13:56:49;;;;;;;8.93;6.93;;;25.90;99.90;;;;;;6190276;23;20031;-93
2023/08/19 13:59:16;;;;;;;7.00;5.90;;;25.90;99.90;;;;;;6190228;23;20017;-94
2023/08/19 14:01:41;;;;;;;7.18;5.75;;;25.80;99.90;;;;;;6216639;23;20012;-94
2023/08/19 14:04:07;;;;;;;5.78;5.05;;;25.80;99.90;;;;;;6189180;23;20465;-94
2023/08/19 14:06:33;;;;;;;6.38;5.10;;;25.80;99.90;;;;;;6189383;23;20048;-94
2023/08/19 14:08:59;;;;;;;4.88;4.40;;;25.60;99.90;;;;;;6189743;23;20013;-94
2023/08/19 14:11:25;;;;;;;6.65;4.20;;;25.60;99.90;;;;;;6191200;23;20044;-93
2023/08/19 14:13:51;;;;;;;6.40;4.50;;;25.60;99.90;;;;;;6188671;23;20095;-93
2023/08/19 14:16:18;;;;;;;5.93;4.80;;;25.60;99.90;;;;;;6190004;23;20012;-95
2023/08/19 14:18:44;;;;;;;5.40;4.43;;;25.50;99.90;;;;;;6189215;23;20028;-93
2023/08/19 14:21:09;;;;;;;6.32;4.68;;;25.40;99.90;;;;;;6216005;23;20013;-93
2023/08/19 14:23:38;;;;;;;5.15;4.45;;;25.40;99.90;;;;;;6190213;23;20020;-93
2023/08/19 14:26:07;;;;;;;5.65;4.22;;;25.30;99.90;;;;;;6190186;23;20008;-94
2023/08/19 14:28:33;;;;;;;5.35;4.80;;;25.30;99.90;;;;;;6214793;23;20061;-93
2023/08/19 14:30:59;;;;;;;6.80;5.03;;;25.20;99.90;;;;;;6215305;23;20055;-94
2023/08/19 14:33:25;;;;;;;5.68;4.70;;;25.20;99.90;;;;;;6189555;23;20046;-94
2023/08/19 14:35:51;;;;;;;5.70;4.57;;;25.10;99.90;;;;;;6231085;23;20064;-94
2023/08/19 14:38:16;;;;;;;9.02;5.90;;;25.20;99.90;;;;;;6191397;23;20197;-94
2023/08/19 14:40:43;;;;;;;7.00;5.40;;;25.00;99.90;;;;;;6207699;23;20012;-93
2023/08/19 14:43:09;;;;;;;7.18;5.82;;;25.00;99.90;;;;;;6217970;23;20012;-94
2023/08/19 14:45:35;;;;;;;8.32;6.10;;;25.00;99.90;;;;;;6192310;23;20022;-93
2023/08/19 14:48:01;;;;;;;7.53;6.22;;;;;;;;;;6193286;23;20043;-94
2023/08/19 14:50:28;;;;;;;7.65;6.30;;;;;;;;;;6218630;23;20017;-94
2023/08/19 14:52:54;;;;;;;7.82;6.00;;;;;;;;;;6195050;23;20067;-94
2023/08/19 14:55:21;;;;;;;10.18;6.43;;;24.80;99.90;;;;;;6194837;23;20009;-94
2023/08/19 14:57:49;;;;;;;7.10;6.40;;;24.50;99.90;;;;;;6217822;23;20021;-94
2023/08/19 15:00:16;;;;;;;7.78;6.55;;;;;;;;;;6218232;23;20021;-94
2023/08/19 15:02:44;;;;;;;8.40;5.80;;;24.40;99.90;;;;;;6192446;23;20092;-94
2023/08/19 15:05:10;;;;;;;;;;;;;;;;;;6217687;23;20043;-94
2023/08/19 15:07:35;;;;;;;8.03;6.10;;;25.40;99.90;;;;;;6216989;23;19916;-94
2023/08/19 15:10:01;;;;;;;8.07;6.30;;;24.30;99.90;;;;;;6191600;23;20009;-93
2023/08/19 15:12:27;;;;;;;8.27;6.97;;;24.20;99.90;;;;;;6190986;23;20016;-93
2023/08/19 15:14:53;;;;;;;7.80;6.32;;;;;;;;;;6191191;23;20076;-93
2023/08/19 15:17:19;;;;;;;9.35;6.97;;;24.10;99.90;;;;;;6191504;23;20017;-93
2023/08/19 15:19:45;;;;;;;10.02;7.13;;;24.10;99.90;;;;;;6191020;23;20096;-94
2023/08/19 15:22:10;;;;;;;10.30;7.10;;;24.10;99.90;;;;;;6216089;23;20024;-93
2023/08/19 15:24:36;;;;;;;8.93;7.20;;;24.10;99.90;;;;;;6217036;23;20017;-93
2023/08/19 15:27:02;;;;;;;9.38;8.35;;;24.10;99.90;;;;;;6191397;23;20048;-93
2023/08/19 15:29:27;;;;;;;10.52;8.90;;;24.10;99.90;;;;;;6200179;23;20009;-93
2023/08/19 15:31:53;;;;;;;10.90;8.23;;;24.10;99.90;;;;;;6201381;23;20063;-93
2023/08/19 15:34:19;;;;;;;10.65;8.73;;;24.10;99.90;;;;;;6207022;23;20064;-93
2023/08/19 15:36:44;;;;;;;9.70;8.40;;;24.10;99.90;;;;;;6196536;23;20009;-93
2023/08/19 15:39:13;;;;;;;12.60;8.85;;;24.10;99.90;;;;;;6193704;23;20012;-92
2023/08/19 15:41:39;;;;;;;11.25;9.20;;;24.10;99.90;;;;;;6196293;23;20009;-94
2023/08/19 15:44:08;;;;;;;10.35;9.25;;;24.00;99.90;;;;;;6196247;23;20017;-93
2023/08/19 15:46:37;;;;;;;10.15;8.90;;;24.10;99.90;;;;;;6216330;23;20013;-93
2023/08/19 15:49:03;;;;;;;13.82;9.30;;;24.10;99.90;;;;;;6215112;23;20064;-93
2023/08/19 15:51:29;;;;;;;12.50;9.70;;;24.00;99.90;;;;;;6216432;23;20005;-94
2023/08/19 15:53:55;;;;;;;12.60;10.48;;;24.20;99.90;;;;;;6218614;23;20009;-95
2023/08/19 15:56:20;;;;;;;13.70;10.43;;;24.00;99.90;;;;;;6197213;23;20343;-93
2023/08/19 15:58:48;;;;;;;13.10;9.80;;;24.00;99.90;;;;;;6194008;23;20039;-93
2023/08/19 16:01:14;;;;;;;16.33;10.68;;;24.30;99.90;;;;;;6195658;23;20009;-94
2023/08/19 16:03:39;;;;;;;12.55;10.13;;;24.30;99.90;;;;;;6194259;23;20019;-93
2023/08/19 16:06:08;;;;;;;13.52;9.75;;;24.40;99.90;;;;;;6193269;23;20435;-95
2023/08/19 16:08:36;;;;;;;12.88;9.80;;;24.20;99.90;;;;;;6219099;23;20038;-95
2023/08/19 16:11:07;;;;;;;11.63;9.38;;;24.60;99.90;;;;;;6194212;23;20064;-95
2023/08/19 16:13:36;;;;;;;12.45;9.00;;;24.40;99.90;;;;;;6217706;23;20013;-95
2023/08/19 16:16:02;;;;;;;12.02;8.48;;;24.40;99.90;;;;;;6216431;23;20063;-92
2023/08/19 16:18:33;;;;;;;9.65;8.45;;;24.50;99.90;;;;;;6191518;23;20091;-91
2023/08/19 16:21:00;;;;;;;12.40;8.43;;;;;;;;;;6215877;23;20091;-92
2023/08/19 16:23:28;;;;;;;9.88;7.20;;;24.80;99.90;;;;;;6196256;23;20023;-91
2023/08/19 16:25:54;;;;;;;12.80;7.00;;;25.00;99.90;;;;;;6202543;23;20074;-93
2023/08/19 16:28:20;;;;;;;10.13;5.20;;;25.00;99.90;;;;;;6202282;23;20001;-91
2023/08/19 16:30:46;;;;;;;8.43;4.55;;;25.10;99.90;;;;;;6198093;23;20343;-92
2023/08/19 16:33:12;;;;;;;10.20;4.32;;;25.10;99.90;;;;;;6217986;23;20453;-92
2023/08/19 16:35:39;;;;;;;6.10;3.35;;;25.10;99.90;;;;;;6191470;23;20009;-94
2023/08/19 16:38:05;;;;;;;6.13;3.30;;;25.00;99.90;;;;;;6217375;23;20024;-92
2023/08/19 16:40:33;;;;;;;5.65;2.65;;;25.00;99.90;;;;;;6191698;23;20018;-92
2023/08/19 16:42:59;;;;;;;5.32;2.30;;;24.90;99.90;;;;;;6216778;23;20008;-92
2023/08/19 16:45:25;;;;;;;6.45;2.45;;;24.70;99.90;;;;;;6218129;23;20055;-94
2023/08/19 16:47:51;;;;;;;5.45;2.28;;;;;;;;;;6217124;23;20017;-93
2023/08/19 16:50:17;;;;;;;5.72;2.30;;;24.60;99.90;;;;;;6216344;23;20035;-94
2023/08/19 16:52:42;;;;;;;5.72;2.13;;;24.40;99.90;;;;;;6191642;23;20430;-93
2023/08/19 16:55:11;;;;;;;4.53;2.35;;;24.30;99.90;;;;;;6193351;23;20047;-93
2023/08/19 16:57:36;;;;;;;6.53;2.38;;;24.20;99.90;;;;;;6193195;23;20079;-94
2023/08/19 17:00:03;;;;;;;4.60;1.80;;;24.10;99.90;;;;;;6191692;23;20024;-93
2023/08/19 17:02:34;;;;;;;3.50;1.80;;;24.00;99.90;;;;;;6191339;23;20054;-94
2023/08/19 17:04:59;;;;;;;3.58;1.73;;;23.80;99.90;;;;;;6190079;23;20092;-94
2023/08/19 17:07:25;;;;;;;3.72;1.55;;;23.80;99.90;;;;;;6190209;23;20063;-93
2023/08/19 17:09:51;;;;;;;3.67;2.05;;;;;;;;;;6194143;23;20068;-94
2023/08/19 17:12:17;;;;;;;3.80;1.95;;;23.70;99.90;;;;;;6192682;23;20052;-93
2023/08/19 17:14:42;;;;;;;3.05;1.83;;;23.50;99.90;;;;;;6193611;23;20067;-93
2023/08/19 17:17:08;;;;;;;5.25;2.05;;;23.40;99.90;;;;;;6221449;23;20008;-94
2023/08/19 17:19:34;;;;;;;5.72;2.40;;;23.30;99.90;;;;;;6204827;23;20342;-94
2023/08/19 17:22:00;;;;;;;5.03;1.70;;;23.20;99.90;;;;;;6221074;23;20019;-94
2023/08/19 17:24:26;;;;;;;6.67;1.97;;;23.10;99.90;;;;;;6208128;23;20055;-93
2023/08/19 17:26:52;;;;;;;6.00;1.80;;;23.20;99.90;;;;;;6191984;23;20114;-94
2023/08/19 17:29:18;;;;;;;5.55;1.90;;;22.90;99.90;;;;;;6191046;23;20013;-94
2023/08/19 17:31:44;;;;;;;4.80;1.52;;;22.80;99.90;;;;;;6193871;23;20092;-93
2023/08/19 17:34:09;;;;;;;4.78;1.58;;;22.60;99.90;;;;;;6218021;23;20012;-92
2023/08/19 17:36:36;;;;;;;4.28;1.75;;;22.50;99.90;;;;;;6216847;23;20331;-93
2023/08/19 17:39:05;;;;;;;6.40;2.15;;;;;;;;;;6216515;23;20017;-93
2023/08/19 17:41:30;;;;;;;4.88;2.00;;;22.40;99.90;;;;;;6216863;23;20024;-94
2023/08/19 17:43:56;;;;;;;7.93;2.45;;;22.30;99.90;;;;;;6193015;23;20021;-92
2023/08/19 17:46:23;;;;;;;10.43;1.92;;;22.30;99.90;;;;;;6232294;23;20017;-92
2023/08/19 17:48:49;;;;;;;5.50;1.90;;;22.20;99.90;;;;;;6211339;23;20036;-93
2023/08/19 17:51:15;;;;;;;6.13;1.90;;;22.10;99.90;;;;;;6237134;23;20039;-91
2023/08/19 17:53:41;;;;;;;4.47;1.83;;;22.00;99.90;;;;;;6199780;23;20424;-90
2023/08/19 17:56:09;;;;;;;5.25;1.88;;;22.00;99.90;;;;;;6212079;23;20013;-90
2023/08/19 17:58:35;;;;;;;3.88;1.45;;;21.90;99.90;;;;;;6212792;23;20020;-92
2023/08/19 18:01:04;;;;;;;4.68;1.92;;;21.80;99.90;;;;;;6188115;23;20501;-92
2023/08/19 18:03:30;;;;;;;4.80;1.83;;;21.70;99.90;;;;;;6194481;23;20063;-91
2023/08/19 18:05:55;;;;;;;4.85;1.33;;;21.60;99.90;;;;;;6215746;23;20020;-94
2023/08/19 18:08:21;;;;;;;5.15;1.45;;;21.50;99.90;;;;;;6212922;23;20051;-88
2023/08/19 18:10:48;;;;;;;3.90;1.60;;;21.50;99.90;;;;;;6219947;23;20016;-93
2023/08/19 18:13:14;;;;;;;6.53;1.70;;;21.40;99.90;;;;;;6226186;23;20016;-93
2023/08/19 18:15:39;;;;;;;5.72;1.50;;;21.40;99.90;;;;;;6198059;23;20067;-92
2023/08/19 18:18:08;;;;;;;3.72;1.50;;;21.30;99.90;;;;;;6205862;23;20027;-91
2023/08/19 18:20:37;;;;;;;3.20;1.38;;;21.20;99.90;;;;;;6200105;23;20080;-91
2023/08/19 18:23:03;;;;;;;5.20;1.65;;;21.40;99.90;;;;;;6195631;23;20019;-96
2023/08/19 18:25:32;;;;;;;4.78;1.63;;;21.10;99.90;;;;;;6222206;23;20031;-94
2023/08/19 18:27:58;;;;;;;5.32;1.95;;;21.20;99.90;;;;;;6191595;23;20016;-93
2023/08/19 18:30:24;;;;;;;5.20;1.42;;;20.90;99.90;;;;;;6213565;23;20019;-92
2023/08/19 18:32:50;;;;;;;4.90;1.63;;;20.90;99.90;;;;;;6212933;23;20155;-93
2023/08/19 18:35:18;;;;;;;5.00;1.60;;;20.70;99.90;;;;;;6190916;23;20016;-93
2023/08/19 18:37:43;;;;;;;;;;;20.70;99.90;;;;;;6193364;23;20016;-93
2023/08/19 18:40:11;;;;;;;6.57;1.40;;;20.70;99.90;;;;;;6216365;23;19912;-94
2023/08/19 18:42:42;;;;;;;5.05;1.38;;;20.50;99.90;;;;;;6191548;23;20020;-94
2023/08/19 18:45:12;;;;;;;5.53;1.75;;;20.50;99.90;;;;;;6193705;23;20020;-92
2023/08/19 18:48:04;;;;;;;4.53;1.33;;;20.40;99.90;;;;;;6193778;23;20027;-94
2023/08/19 18:50:32;;;;;;;6.90;1.70;;;20.30;99.90;;;;;;6215077;23;20464;-93
2023/08/19 18:52:57;;;;;;;;;;;20.20;99.90;;;;;;6216070;23;20109;-93
2023/08/19 18:55:23;;;;;;;5.82;1.60;;;20.20;99.90;;;;;;6215278;23;19912;-93
2023/08/19 18:57:52;;;;;;;6.82;1.90;;;20.10;99.90;;;;;;6190070;23;20016;-93
2023/08/19 19:00:18;;;;;;;5.45;1.70;;;20.00;99.90;;;;;;6188455;23;20071;-93
2023/08/19 19:02:46;;;;;;;9.20;1.90;;;19.90;99.90;;;;;;6214011;23;20256;-93
2023/08/19 19:05:12;;;;;;;5.75;1.60;;;19.90;99.90;;;;;;6188856;23;20342;-93
2023/08/19 19:07:38;;;;;;;6.53;2.00;;;19.80;99.90;;;;;;6202369;23;20020;-92
2023/08/19 19:10:07;;;;;;;7.10;1.67;;;19.70;99.90;;;;;;6220955;23;20019;-92
2023/08/19 19:12:36;;;;;;;5.47;1.92;;;19.70;99.90;;;;;;6205253;23;20064;-93
2023/08/19 19:15:03;;;;;;;6.15;1.80;;;19.70;99.90;;;;;;6190100;23;20044;-93
2023/08/19 19:17:47;;;;;;;8.27;2.22;;;19.60;99.90;;;;;;6215459;23;20017;-93
2023/08/19 19:20:16;;;;;;;6.32;1.80;;;19.50;99.90;;;;;;6215471;23;20019;-93
2023/08/19 19:22:45;;;;;;;9.10;2.00;;;19.50;99.90;;;;;;6217319;23;20069;-93
2023/08/19 19:25:12;;;;;;;6.90;1.85;;;19.40;99.90;;;;;;6216351;23;20012;-93
2023/08/19 19:27:38;;;;;;;9.87;2.00;;;19.40;99.90;;;;;;6215102;23;20068;-93
2023/08/19 19:30:06;;;;;;;7.60;1.85;;;19.40;99.90;;;;;;6214841;23;20090;-93
2023/08/19 19:32:32;;;;;;;5.90;2.03;;;19.30;99.90;;;;;;6193074;23;20016;-92
2023/08/19 19:34:58;;;;;;;7.00;2.25;;;19.30;99.90;;;;;;6215636;23;20389;-92
2023/08/19 19:37:24;;;;;;;7.45;2.05;;;19.20;99.90;;;;;;6190978;23;20016;-92
2023/08/19 19:39:52;;;;;;;4.88;1.85;;;19.20;99.90;;;;;;6215973;23;20013;-93
2023/08/19 19:42:19;;;;;;;7.03;2.00;;;19.10;99.90;;;;;;6216029;23;20023;-93
2023/08/19 19:44:45;;;;;;;7.82;2.15;;;19.10;99.90;;;;;;6215014;23;20016;-93
2023/08/19 19:47:14;;;;;;;7.35;2.00;;;19.00;99.90;;;;;;6191593;23;20012;-93
2023/08/19 19:49:39;;;;;;;6.32;1.60;;;19.00;99.90;;;;;;6189818;23;20071;-93
2023/08/19 19:52:06;;;;;;;6.50;1.85;;;19.20;99.90;;;;;;6190908;23;20066;-93
2023/08/19 19:54:32;;;;;;;5.70;2.00;;;18.80;99.90;;;;;;6216264;23;20043;-92
2023/08/19 19:56:58;;;;;;;4.95;1.80;;;18.90;99.90;;;;;;6190059;23;20441;-93
2023/08/19 19:59:24;;;;;;;7.85;2.00;;;18.80;99.90;;;;;;6216139;23;20019;-93
2023/08/19 20:01:50;;;;;;;5.30;2.05;;;19.00;99.90;;;;;;6201234;23;20024;-93
2023/08/19 20:04:16;;;;;;;7.03;2.13;;;19.10;99.90;;;;;;6196379;23;20015;-93
2023/08/19 20:06:42;;;;;;;5.18;1.73;;;;;;;;;;6206321;23;20040;-93
2023/08/19 20:09:10;;;;;;;7.70;1.90;;;18.90;99.90;;;;;;6193585;23;20009;-94
2023/08/19 20:11:40;;;;;;;10.68;1.90;;;18.50;99.90;;;;;;6217376;23;20025;-94
2023/08/19 20:14:06;;;;;;;9.15;2.00;;;18.50;99.90;;;;;;6190585;23;20009;-94
2023/08/19 20:16:32;;;;;;;5.50;2.05;;;18.40;99.90;;;;;;6190396;23;20055;-92
2023/08/19 20:18:58;;;;;;;7.93;2.47;;;18.40;99.90;;;;;;6215825;23;20039;-93
2023/08/19 20:21:24;;;;;;;7.47;2.03;;;18.40;99.90;;;;;;6190568;23;20020;-93
2023/08/19 20:23:50;;;;;;;9.70;2.45;;;18.30;99.90;;;;;;6190104;23;20016;-94
2023/08/19 20:26:16;;;;;;;6.95;2.20;;;18.30;99.90;;;;;;6190145;23;20012;-94
2023/08/19 20:28:41;;;;;;;5.43;2.20;;;18.20;99.90;;;;;;6190249;23;20027;-93
2023/08/19 20:31:07;;;;;;;6.55;2.53;;;18.20;99.90;;;;;;6190118;23;20051;-94
2023/08/19 20:33:33;;;;;;;8.52;2.20;;;18.10;99.90;;;;;;6214663;23;20016;-93
2023/08/19 20:35:59;;;;;;;7.90;2.15;;;18.20;99.90;;;;;;6215565;23;20065;-94
2023/08/19 20:38:25;;;;;;;8.07;2.10;;;18.10;99.90;;;;;;6214788;23;20016;-91
2023/08/19 20:40:50;;;;;;;5.93;2.08;;;18.00;99.90;;;;;;6215296;23;20016;-94
2023/08/19 20:43:18;;;;;;;5.82;2.63;;;18.00;99.90;;;;;;6190519;23;20016;-94
2023/08/19 20:45:51;;;;;;;9.00;2.45;;;18.00;99.90;;;;;;6190221;23;20023;-93
2023/08/19 20:48:16;;;;;;;7.03;2.40;;;17.90;99.90;;;;;;6190130;23;20013;-94
2023/08/19 20:50:42;;;;;;;9.18;3.30;;;17.90;99.90;;;;;;6189799;23;20058;-93
2023/08/19 20:53:08;;;;;;;9.80;3.92;;;17.80;99.90;;;;;;6189821;23;20073;-94
2023/08/19 20:55:34;;;;;;;9.00;3.47;;;17.80;99.90;;;;;;6191630;23;20521;-94
2023/08/19 20:58:00;;;;;;;8.60;3.15;;;17.80;99.90;;;;;;6231082;23;20016;-93
2023/08/19 21:00:25;;;;;;;12.00;3.60;;;17.70;99.90;;;;;;6194769;23;20030;-93
2023/08/19 21:02:51;;;;;;;8.70;3.35;;;17.60;99.90;;;;;;6203894;23;20098;-93
2023/08/19 21:05:20;;;;;;;7.82;3.33;;;17.60;99.90;;;;;;6190675;23;20032;-93
2023/08/19 21:07:45;;;;;;;8.90;3.53;;;17.60;99.90;;;;;;6213779;23;20067;-94
2023/08/19 21:10:11;;;;;;;6.70;3.05;;;17.50;99.90;;;;;;6215387;23;20012;-93
2023/08/19 21:12:37;;;;;;;5.75;3.08;;;17.50;99.90;;;;;;6190390;23;20017;-92
2023/08/19 21:15:05;;;;;;;6.30;3.13;;;17.40;99.90;;;;;;6189329;23;20429;-93
2023/08/19 21:17:31;;;;;;;8.52;3.20;;;17.40;99.90;;;;;;6189793;23;20158;-94
2023/08/19 21:19:57;;;;;;;8.15;3.50;;;17.40;99.90;;;;;;6190134;23;20020;-94
2023/08/19 21:22:23;;;;;;;7.05;3.90;;;17.30;99.90;;;;;;6190568;23;20013;-93
2023/08/19 21:24:49;;;;;;;8.88;3.80;;;17.30;99.90;;;;;;6215395;23;20434;-93
2023/08/19 21:27:16;;;;;;;9.02;3.45;;;17.30;99.90;;;;;;6189659;23;20035;-93
2023/08/19 21:29:44;;;;;;;;;;;17.30;99.90;;;;;;6190812;23;20048;-94
2023/08/19 21:32:10;;;;;;;9.50;3.28;;;17.30;99.90;;;;;;6215697;23;19916;-93
2023/08/19 21:34:36;;;;;;;6.22;3.20;;;17.30;99.90;;;;;;6214927;23;20019;-94
2023/08/19 21:37:02;;;;;;;7.88;3.20;;;17.20;99.90;;;;;;6215036;23;20012;-93
2023/08/19 21:39:28;;;;;;;8.07;3.40;;;17.10;99.90;;;;;;6189096;23;20323;-94
2023/08/19 21:41:53;;;;;;;8.35;3.33;;;17.10;99.90;;;;;;6215108;23;20391;-93
2023/08/19 21:44:19;;;;;;;6.65;3.35;;;17.10;99.90;;;;;;6188869;23;20012;-93
2023/08/19 21:46:45;;;;;;;7.03;3.00;;;17.10;99.90;;;;;;6190197;23;20346;-93
2023/08/19 21:49:11;;;;;;;8.73;2.90;;;17.00;99.90;;;;;;6190026;23;20064;-94
2023/08/19 21:51:36;;;;;;;8.93;3.33;;;17.00;99.90;;;;;;6199106;23;20017;-92
2023/08/19 21:54:02;;;;;;;8.23;3.30;;;17.00;99.90;;;;;;6201111;23;20091;-93
2023/08/19 21:56:28;;;;;;;6.38;3.05;;;17.00;99.90;;;;;;6227335;23;20430;-94
2023/08/19 21:58:54;;;;;;;6.45;2.53;;;16.90;99.90;;;;;;6201475;23;20473;-94
2023/08/19 22:01:19;;;;;;;5.45;2.63;;;16.90;99.90;;;;;;6220159;23;20013;-94
2023/08/19 22:03:45;;;;;;;4.18;2.65;;;16.90;99.90;;;;;;6190376;23;20012;-92
2023/08/19 22:06:11;;;;;;;8.95;3.20;;;16.80;99.90;;;;;;6214588;23;20026;-93
2023/08/19 22:08:40;;;;;;;8.18;3.42;;;16.80;99.90;;;;;;6189219;23;20023;-93
2023/08/19 22:11:06;;;;;;;10.95;3.85;;;16.80;99.90;;;;;;6188519;23;20096;-94
2023/08/19 22:13:35;;;;;;;6.10;2.88;;;;;;;;;;6213485;23;20051;-93
2023/08/19 22:16:01;;;;;;;8.18;2.60;;;;;;;;;;6213959;23;20070;-93
2023/08/19 22:18:27;;;;;;;7.93;3.22;;;;;;;;;;6188288;23;20020;-94
2023/08/19 22:20:53;;;;;;;5.65;2.78;;;;;;;;;;6214792;23;20016;-93
2023/08/19 22:23:19;;;;;;;5.32;2.83;;;;;;;;;;6213453;23;20116;-93
2023/08/19 22:25:46;;;;;;;4.88;3.20;;;;;;;;;;6213741;23;20012;-93
2023/08/19 22:28:12;;;;;;;10.40;3.50;;;;;;;;;;6188309;23;20016;-94
2023/08/19 22:30:38;;;;;;;6.88;3.05;;;;;;;;;;6190001;23;20366;-94
2023/08/19 22:33:05;;;;;;;6.00;3.20;;;;;;;;;;6192038;23;20016;-94
2023/08/19 22:35:31;;;;;;;6.25;3.22;;;;;;;;;;6193571;23;20067;-92
2023/08/19 22:37:57;;;;;;;9.07;3.47;;;;;;;;;;6193988;23;20027;-94
2023/08/19 22:40:23;;;;;;;8.68;3.50;;;;;;;;;;6191064;23;20070;-93
2023/08/19 22:42:49;;;;;;;7.88;3.28;;;16.80;99.90;;;;;;6189718;23;20023;-94
2023/08/19 22:45:15;;;;;;;7.53;3.72;;;16.90;99.90;;;;;;6201121;23;20068;-94
2023/08/19 22:47:41;;;;;;;6.40;3.15;;;16.90;99.90;;;;;;6219905;23;20262;-94
2023/08/19 22:50:07;;;;;;;9.05;3.92;;;17.00;99.90;;;;;;6227972;23;20019;-94